createdAt,value
2023-02-22T00:01:19.306Z,100928.77
2023-02-22T00:03:53.612Z,100929.96
2023-02-22T00:06:25.266Z,100932.04
2023-02-22T00:08:53.532Z,100931.10
2023-02-22T00:11:21.718Z,100930.95
2023-02-22T00:13:50.681Z,100926.30
2023-02-22T00:16:21.372Z,100930.48
2023-02-22T00:18:50.146Z,100931.94
2023-02-22T00:21:18.718Z,100934.95
2023-02-22T00:23:48.140Z,100935.43
2023-02-22T00:26:19.749Z,100936.36
2023-02-22T00:28:51.865Z,100933.17
2023-02-22T00:31:21.264Z,100933.27
2023-02-22T00:33:50.601Z,100932.48
2023-02-22T00:36:18.636Z,100932.95
2023-02-22T00:38:46.621Z,100931.58
2023-02-22T00:41:16.431Z,100936.02
2023-02-22T00:43:44.493Z,100937.56
2023-02-22T00:46:14.035Z,100939.84
2023-02-22T00:48:42.012Z,100941.11
2023-02-22T00:51:10.070Z,100941.64
2023-02-22T00:53:37.998Z,100941.55
2023-02-22T00:56:06.881Z,100947.56
2023-02-22T00:58:34.767Z,100947.55
2023-02-22T01:01:02.644Z,100945.86
2023-02-22T01:03:32.387Z,100946.75
2023-02-22T01:06:00.611Z,100953.71
2023-02-22T01:08:31.195Z,100948.63
2023-02-22T01:10:59.148Z,100948.98
2023-02-22T01:13:27.457Z,100951.88
2023-02-22T01:15:56.872Z,100955.70
2023-02-22T01:18:25.977Z,100953.05
2023-02-22T01:20:54.309Z,100954.71
2023-02-22T01:23:22.325Z,100952.75
2023-02-22T01:25:50.325Z,100954.29
2023-02-22T01:28:18.621Z,100955.99
2023-02-22T01:30:46.582Z,100957.19
2023-02-22T01:33:16.087Z,100958.94
2023-02-22T01:35:46.356Z,100959.23
2023-02-22T01:38:14.589Z,100957.40
2023-02-22T01:40:46.914Z,100959.89
2023-02-22T01:43:27.779Z,100959.02
2023-02-22T01:46:08.358Z,100958.21
2023-02-22T01:48:47.920Z,100958.95
2023-02-22T01:51:19.833Z,100961.57
2023-02-22T01:53:53.255Z,100966.73
2023-02-22T01:56:23.386Z,100961.55
2023-02-22T01:58:56.915Z,100963.86
2023-02-22T02:01:26.360Z,100962.79
2023-02-22T02:03:58.348Z,100960.44
2023-02-22T02:06:31.338Z,100959.30
2023-02-22T02:09:01.235Z,100964.89
2023-02-22T02:11:31.220Z,100961.96
2023-02-22T02:14:01.053Z,100960.89
2023-02-22T02:16:40.131Z,100965.50
2023-02-22T02:19:34.740Z,100966.56
2023-02-22T02:22:52.754Z,100964.10
2023-02-22T02:26:09.138Z,100964.23
2023-02-22T02:28:58.775Z,100962.81
2023-02-22T02:31:43.937Z,100960.51
2023-02-22T02:34:24.326Z,100960.67
2023-02-22T02:37:12.482Z,100960.04
2023-02-22T02:40:11.957Z,100957.16
2023-02-22T02:42:51.251Z,100956.52
2023-02-22T02:45:25.903Z,100962.54
2023-02-22T02:47:59.334Z,100962.33
2023-02-22T02:50:39.157Z,100961.91
2023-02-22T02:53:09.731Z,100965.42
2023-02-22T02:55:38.126Z,100964.16
2023-02-22T02:58:08.761Z,100966.79
2023-02-22T03:00:41.330Z,100964.83
2023-02-22T03:03:34.454Z,100962.08
2023-02-22T03:06:25.513Z,100965.95
2023-02-22T03:09:03.607Z,100963.45
2023-02-22T03:12:05.961Z,100959.48
2023-02-22T03:14:42.432Z,100960.84
2023-02-22T03:17:26.812Z,100960.89
2023-02-22T03:20:02.059Z,100961.84
2023-02-22T03:22:37.763Z,100961.64
2023-02-22T03:25:10.548Z,100959.69
2023-02-22T03:27:50.650Z,100962.92
2023-02-22T03:30:24.191Z,100960.86
2023-02-22T03:33:09.272Z,100960.25
2023-02-22T03:35:48.278Z,100960.29
2023-02-22T03:38:20.410Z,100962.11
2023-02-22T03:40:54.556Z,100961.20
2023-02-22T03:43:33.492Z,100967.06
2023-02-22T03:46:06.389Z,100974.58
2023-02-22T03:49:03.797Z,100978.38
2023-02-22T03:51:34.717Z,100979.01
2023-02-22T03:54:03.963Z,100981.13
2023-02-22T03:56:54.467Z,100978.83
2023-02-22T03:59:27.597Z,100981.09
2023-02-22T04:01:56.956Z,100982.11
2023-02-22T04:04:25.956Z,100984.98
2023-02-22T04:06:54.898Z,100988.05
2023-02-22T04:09:23.084Z,100990.79
2023-02-22T04:11:51.220Z,100990.70
2023-02-22T04:14:19.163Z,100996.54
2023-02-22T04:16:47.314Z,100997.23
2023-02-22T04:19:15.454Z,101003.56
2023-02-22T04:21:43.258Z,101005.30
2023-02-22T04:24:18.364Z,101003.31
2023-02-22T04:26:46.619Z,101002.45
2023-02-22T04:29:14.540Z,101005.84
2023-02-22T04:31:45.246Z,101008.05
2023-02-22T04:34:13.860Z,101011.60
2023-02-22T04:36:44.743Z,101009.91
2023-02-22T04:39:13.074Z,101014.46
2023-02-22T04:41:41.173Z,101014.67
2023-02-22T04:44:09.620Z,101018.05
2023-02-22T04:46:37.685Z,101016.79
2023-02-22T04:49:05.837Z,101010.69
2023-02-22T04:51:37.137Z,101016.59
2023-02-22T04:54:10.014Z,101009.85
2023-02-22T04:56:41.775Z,101009.34
2023-02-22T04:59:10.658Z,101015.61
2023-02-22T05:01:40.094Z,101016.11
2023-02-22T05:04:08.216Z,101013.32
2023-02-22T05:06:36.149Z,101014.31
2023-02-22T05:09:04.521Z,101018.76
2023-02-22T05:11:32.358Z,101017.38
2023-02-22T05:14:00.267Z,101017.81
2023-02-22T05:16:28.229Z,101021.02
2023-02-22T05:18:56.288Z,101022.02
2023-02-22T05:21:24.280Z,101026.11
2023-02-22T05:23:52.203Z,101023.98
2023-02-22T05:26:20.203Z,101021.09
2023-02-22T05:28:48.174Z,101026.73
2023-02-22T05:31:16.356Z,101024.66
2023-02-22T05:33:44.569Z,101022.64
2023-02-22T05:36:12.656Z,101026.45
2023-02-22T05:38:43.430Z,101028.41
2023-02-22T05:41:12.892Z,101031.67
2023-02-22T05:43:41.339Z,101034.56
2023-02-22T05:46:09.341Z,101037.89
2023-02-22T05:48:37.516Z,101040.59
2023-02-22T05:51:05.825Z,101046.63
2023-02-22T05:53:33.891Z,101048.55
2023-02-22T05:56:02.286Z,101052.23
2023-02-22T05:58:30.276Z,101055.58
2023-02-22T06:00:58.436Z,101055.91
2023-02-22T06:03:26.449Z,101061.85
2023-02-22T06:05:54.457Z,101059.91
2023-02-22T06:08:22.377Z,101063.04
2023-02-22T06:10:50.422Z,101067.42
2023-02-22T06:13:18.364Z,101064.19
2023-02-22T06:15:46.443Z,101065.80
2023-02-22T06:18:14.620Z,101070.19
2023-02-22T06:20:42.588Z,101071.09
2023-02-22T06:23:11.190Z,101076.27
2023-02-22T06:25:39.119Z,101076.03
2023-02-22T06:28:07.125Z,101078.70
2023-02-22T06:30:35.231Z,101079.33
2023-02-22T06:33:03.396Z,101081.61
2023-02-22T06:35:31.186Z,101082.63
2023-02-22T06:37:59.228Z,101085.23
2023-02-22T06:40:30.317Z,101091.55
2023-02-22T06:42:59.889Z,101092.67
2023-02-22T06:45:28.433Z,101093.17
2023-02-22T06:47:56.467Z,101093.56
2023-02-22T06:50:30.279Z,101100.39
2023-02-22T06:52:58.934Z,101099.38
2023-02-22T06:55:29.328Z,101100.87
2023-02-22T06:57:57.653Z,101098.96
2023-02-22T07:00:27.249Z,101098.22
2023-02-22T07:02:55.957Z,101094.66
2023-02-22T07:05:26.046Z,101093.92
2023-02-22T07:07:56.137Z,101092.64
2023-02-22T07:10:28.110Z,101096.39
2023-02-22T07:12:56.251Z,101094.59
2023-02-22T07:15:26.468Z,101093.21
2023-02-22T07:17:55.236Z,101093.30
2023-02-22T07:20:24.595Z,101091.11
2023-02-22T07:22:52.926Z,101086.60
2023-02-22T07:25:21.471Z,101089.56
2023-02-22T07:27:49.762Z,101095.36
2023-02-22T07:30:17.590Z,101095.27
2023-02-22T07:32:47.557Z,101100.59
2023-02-22T07:35:22.454Z,101100.08
2023-02-22T07:37:50.734Z,101104.11
2023-02-22T07:40:19.748Z,101104.92
2023-02-22T07:42:57.305Z,101100.83
2023-02-22T07:45:28.199Z,101102.29
2023-02-22T07:47:56.599Z,101107.69
2023-02-22T07:50:26.517Z,101104.78
2023-02-22T07:52:56.988Z,101108.48
2023-02-22T07:55:27.967Z,101108.66
2023-02-22T07:58:01.917Z,101108.41
2023-02-22T08:00:31.912Z,101111.29
2023-02-22T08:03:01.864Z,101113.17
2023-02-22T08:05:31.949Z,101106.74
2023-02-22T08:08:00.127Z,101112.27
2023-02-22T08:10:29.280Z,101119.35
2023-02-22T08:12:57.266Z,101117.76
2023-02-22T08:15:31.208Z,101123.27
2023-02-22T08:18:01.100Z,101122.16
2023-02-22T08:20:30.690Z,101122.01
2023-02-22T08:22:59.109Z,101129.09
2023-02-22T08:25:29.284Z,101132.09
2023-02-22T08:28:02.610Z,101133.65
2023-02-22T08:30:32.165Z,101136.91
2023-02-22T08:33:02.151Z,101133.95
2023-02-22T08:35:33.040Z,101136.29
2023-02-22T08:38:03.988Z,101136.75
2023-02-22T08:40:35.746Z,101135.79
2023-02-22T08:43:04.611Z,101136.17
2023-02-22T08:45:32.760Z,101133.91
2023-02-22T08:48:00.883Z,101135.25
2023-02-22T08:50:32.062Z,101134.33
2023-02-22T08:53:01.726Z,101131.22
2023-02-22T08:55:32.785Z,101132.39
2023-02-22T08:58:03.270Z,101135.42
2023-02-22T09:00:33.590Z,101139.33
2023-02-22T09:03:03.203Z,101141.98
2023-02-22T09:05:32.012Z,101145.76
2023-02-22T09:08:01.634Z,101143.36
2023-02-22T09:10:32.224Z,101145.54
2023-02-22T09:13:01.480Z,101143.52
2023-02-22T09:15:30.495Z,101144.31
2023-02-22T09:17:59.499Z,101147.00
2023-02-22T09:20:28.670Z,101150.34
2023-02-22T09:22:57.290Z,101151.29
2023-02-22T09:25:25.435Z,101153.52
2023-02-22T09:27:54.490Z,101153.49
2023-02-22T09:30:32.400Z,101152.59
2023-02-22T09:33:12.605Z,101156.80
2023-02-22T09:35:42.882Z,101156.33
2023-02-22T09:38:11.709Z,101157.43
2023-02-22T09:40:47.847Z,101154.58
2023-02-22T09:43:21.531Z,101153.48
2023-02-22T09:46:12.070Z,101148.51
2023-02-22T09:49:15.648Z,101148.18
2023-02-22T09:52:16.994Z,101142.41
2023-02-22T09:54:52.048Z,101141.09
2023-02-22T09:57:26.701Z,101146.33
2023-02-22T10:00:01.943Z,101145.71
2023-02-22T10:03:12.640Z,101148.45
2023-02-22T10:05:44.368Z,101148.56
2023-02-22T10:08:15.402Z,101144.30
2023-02-22T10:10:46.239Z,101148.41
2023-02-22T10:13:42.186Z,101145.65
2023-02-22T10:16:25.543Z,101147.39
2023-02-22T10:19:02.601Z,101148.48
2023-02-22T10:21:53.701Z,101152.48
2023-02-22T10:24:39.770Z,101155.64
2023-02-22T10:27:16.360Z,101155.14
2023-02-22T10:29:50.894Z,101156.11
2023-02-22T10:32:25.576Z,101154.10
2023-02-22T10:34:55.477Z,101152.34
2023-02-22T10:37:34.183Z,101154.70
2023-02-22T10:40:13.335Z,101155.91
2023-02-22T10:42:41.440Z,101152.50
2023-02-22T10:45:32.648Z,101151.55
2023-02-22T10:48:08.843Z,101154.27
2023-02-22T10:50:39.895Z,101150.63
2023-02-22T10:53:09.605Z,101156.06
2023-02-22T10:56:15.119Z,101157.26
2023-02-22T10:58:54.497Z,101154.05
2023-02-22T11:01:36.589Z,101154.11
2023-02-22T11:04:13.053Z,101150.09
2023-02-22T11:06:44.703Z,101150.17
2023-02-22T11:09:15.626Z,101146.71
2023-02-22T11:11:47.079Z,101143.41
2023-02-22T11:14:30.117Z,101144.45
2023-02-22T11:16:59.467Z,101142.25
2023-02-22T11:19:29.950Z,101143.98
2023-02-22T11:22:36.484Z,101142.61
2023-02-22T11:25:07.607Z,101139.11
2023-02-22T11:27:47.028Z,101134.71
2023-02-22T11:30:17.817Z,101136.14
2023-02-22T11:32:58.533Z,101134.42
2023-02-22T11:35:29.260Z,101132.75
2023-02-22T11:38:17.896Z,101129.88
2023-02-22T11:40:46.023Z,101134.63
2023-02-22T11:43:19.475Z,101132.92
2023-02-22T11:46:05.115Z,101135.70
2023-02-22T11:48:36.686Z,101133.52
2023-02-22T11:51:39.095Z,101129.52
2023-02-22T11:54:13.528Z,101134.84
2023-02-22T11:56:48.456Z,101131.90
2023-02-22T11:59:55.699Z,101132.41
2023-02-22T12:02:56.565Z,101135.71
2023-02-22T12:05:27.957Z,101131.38
2023-02-22T12:08:37.401Z,101129.69
2023-02-22T12:11:18.395Z,101130.14
2023-02-22T12:13:52.908Z,101128.85
2023-02-22T12:16:35.359Z,101127.66
2023-02-22T12:19:27.672Z,101127.03
2023-02-22T12:22:02.457Z,101126.71
2023-02-22T12:24:37.285Z,101125.28
2023-02-22T12:27:24.088Z,101122.30
2023-02-22T12:30:13.119Z,101123.69
2023-02-22T12:32:49.770Z,101123.58
2023-02-22T12:35:25.222Z,101121.97
2023-02-22T12:37:58.544Z,101127.19
2023-02-22T12:40:47.597Z,101124.77
2023-02-22T12:43:31.333Z,101127.91
2023-02-22T12:46:21.580Z,101122.55
2023-02-22T12:49:00.875Z,101125.16
2023-02-22T12:51:36.641Z,101126.64
2023-02-22T12:54:31.171Z,101127.04
2023-02-22T12:57:19.954Z,101128.23
2023-02-22T13:00:26.536Z,101122.89
2023-02-22T13:03:13.159Z,101127.60
2023-02-22T13:05:41.512Z,101125.23
2023-02-22T13:08:26.453Z,101128.91
2023-02-22T13:11:07.038Z,101127.13
2023-02-22T13:13:40.887Z,101125.00
2023-02-22T13:16:54.459Z,101126.42
2023-02-22T13:19:25.690Z,101124.00
2023-02-22T13:22:10.183Z,101122.98
2023-02-22T13:25:00.040Z,101122.04
2023-02-22T13:27:47.054Z,101117.27
2023-02-22T13:30:40.900Z,101118.64
2023-02-22T13:33:34.297Z,101119.23
2023-02-22T13:36:34.596Z,101121.28
2023-02-22T13:39:36.768Z,101114.40
2023-02-22T13:42:30.471Z,101119.52
2023-02-22T13:45:40.370Z,101119.95
2023-02-22T13:48:21.833Z,101120.34
2023-02-22T13:51:08.603Z,101116.43
2023-02-22T13:53:58.020Z,101118.79
2023-02-22T13:56:27.205Z,101117.98
2023-02-22T13:58:59.788Z,101114.61
2023-02-22T14:01:45.820Z,101116.63
2023-02-22T14:04:28.183Z,101118.83
2023-02-22T14:07:02.151Z,101119.58
2023-02-22T14:10:02.879Z,101120.52
2023-02-22T14:12:31.047Z,101123.27
2023-02-22T14:15:28.186Z,101120.39
2023-02-22T14:17:56.716Z,101116.09
2023-02-22T14:20:32.452Z,101117.08
2023-02-22T14:23:55.908Z,101113.25
2023-02-22T14:26:30.741Z,101114.31
2023-02-22T14:29:07.975Z,101114.41
2023-02-22T14:31:44.931Z,101111.10
2023-02-22T14:34:17.543Z,101117.99
2023-02-22T14:36:54.768Z,101115.21
2023-02-22T14:39:38.390Z,101115.73
2023-02-22T14:42:30.876Z,101115.59
2023-02-22T14:45:12.623Z,101114.09
2023-02-22T14:47:43.992Z,101114.37
2023-02-22T14:50:35.327Z,101119.81
2023-02-22T14:53:32.848Z,101115.27
2023-02-22T14:56:07.012Z,101112.36
2023-02-22T14:58:45.968Z,101115.54
2023-02-22T15:01:44.440Z,101116.36
2023-02-22T15:04:23.549Z,101120.47
2023-02-22T15:06:52.474Z,101121.20
2023-02-22T15:09:31.800Z,101120.45
2023-02-22T15:12:03.856Z,101120.23
2023-02-22T15:14:38.246Z,101120.08
2023-02-22T15:17:16.915Z,101117.70
2023-02-22T15:19:48.736Z,101121.10
2023-02-22T15:22:26.561Z,101119.65
2023-02-22T15:24:58.861Z,101117.59
2023-02-22T15:27:28.394Z,101115.10
2023-02-22T15:29:59.598Z,101116.33
2023-02-22T15:32:27.720Z,101112.16
2023-02-22T15:34:59.121Z,101115.71
2023-02-22T15:37:29.194Z,101114.19
2023-02-22T15:40:15.765Z,101115.25
2023-02-22T15:42:47.248Z,101115.63
2023-02-22T15:45:21.242Z,101115.67
2023-02-22T15:47:50.023Z,101111.41
2023-02-22T15:50:25.788Z,101118.08
2023-02-22T15:53:01.870Z,101117.48
2023-02-22T15:55:36.788Z,101119.59
2023-02-22T15:58:12.678Z,101123.14
2023-02-22T16:00:44.414Z,101126.09
2023-02-22T16:03:16.507Z,101126.20
2023-02-22T16:05:50.612Z,101124.95
2023-02-22T16:08:18.665Z,101129.06
2023-02-22T16:11:15.076Z,101128.27
2023-02-22T16:13:43.178Z,101131.86
2023-02-22T16:16:17.427Z,101134.16
2023-02-22T16:18:45.649Z,101137.16
2023-02-22T16:21:16.829Z,101137.20
2023-02-22T16:23:53.083Z,101140.35
2023-02-22T16:26:23.801Z,101146.17
2023-02-22T16:29:04.267Z,101143.50
2023-02-22T16:31:34.936Z,101146.96
2023-02-22T16:34:06.497Z,101146.19
2023-02-22T16:36:49.226Z,101147.33
2023-02-22T16:39:19.081Z,101150.20
2023-02-22T16:41:47.076Z,101153.41
2023-02-22T16:44:15.114Z,101161.16
2023-02-22T16:46:43.680Z,101163.19
2023-02-22T16:49:13.493Z,101163.97
2023-02-22T16:51:53.542Z,101164.59
2023-02-22T16:54:27.165Z,101170.08
2023-02-22T16:56:56.969Z,101165.90
2023-02-22T16:59:25.137Z,101170.30
2023-02-22T17:01:53.101Z,101166.08
2023-02-22T17:04:24.294Z,101166.37
2023-02-22T17:06:53.450Z,101169.66
2023-02-22T17:09:21.515Z,101168.73
2023-02-22T17:11:51.602Z,101164.89
2023-02-22T17:14:23.417Z,101169.52
2023-02-22T17:16:52.428Z,101169.40
2023-02-22T17:19:26.560Z,101172.48
2023-02-22T17:21:54.852Z,101175.64
2023-02-22T17:24:25.058Z,101175.10
2023-02-22T17:26:53.269Z,101173.30
2023-02-22T17:29:21.600Z,101178.95
2023-02-22T17:31:50.242Z,101184.06
2023-02-22T17:34:18.212Z,101180.73
2023-02-22T17:36:46.613Z,101185.95
2023-02-22T17:39:14.595Z,101185.02
2023-02-22T17:41:42.724Z,101189.43
2023-02-22T17:44:11.055Z,101188.84
2023-02-22T17:46:42.242Z,101186.09
2023-02-22T17:49:10.273Z,101182.60
2023-02-22T17:51:40.968Z,101181.30
2023-02-22T17:54:10.356Z,101184.84
2023-02-22T17:56:38.514Z,101185.31
2023-02-22T17:59:09.265Z,101184.70
2023-02-22T18:01:37.529Z,101186.41
2023-02-22T18:04:05.888Z,101183.41
2023-02-22T18:06:33.814Z,101181.46
2023-02-22T18:09:10.449Z,101184.29
2023-02-22T18:11:39.874Z,101182.81
2023-02-22T18:14:10.153Z,101182.40
2023-02-22T18:16:39.552Z,101180.16
2023-02-22T18:19:08.225Z,101178.52
2023-02-22T18:21:36.432Z,101176.98
2023-02-22T18:24:04.724Z,101177.16
2023-02-22T18:26:32.869Z,101177.05
2023-02-22T18:29:01.170Z,101176.99
2023-02-22T18:31:29.222Z,101175.91
2023-02-22T18:33:57.672Z,101171.71
2023-02-22T18:36:25.974Z,101174.02
2023-02-22T18:38:55.033Z,101175.84
2023-02-22T18:41:27.059Z,101171.11
2023-02-22T18:43:57.709Z,101175.54
2023-02-22T18:46:25.884Z,101173.66
2023-02-22T18:48:55.796Z,101170.69
2023-02-22T18:51:25.231Z,101168.46
2023-02-22T18:53:59.957Z,101171.23
2023-02-22T18:56:34.003Z,101169.44
2023-02-22T18:59:04.320Z,101166.16
2023-02-22T19:01:38.913Z,101159.55
2023-02-22T19:04:12.703Z,101162.14
2023-02-22T19:06:41.452Z,101163.19
2023-02-22T19:09:09.709Z,101163.45
2023-02-22T19:11:40.174Z,101164.91
2023-02-22T19:14:09.645Z,101163.48
2023-02-22T19:16:37.851Z,101164.02
2023-02-22T19:19:06.057Z,101166.50
2023-02-22T19:21:34.373Z,101161.34
2023-02-22T19:24:02.838Z,101163.51
2023-02-22T19:26:32.176Z,101165.30
2023-02-22T19:29:04.880Z,101166.80
2023-02-22T19:31:34.257Z,101164.52
2023-02-22T19:34:09.262Z,101161.96
2023-02-22T19:36:39.270Z,101166.17
2023-02-22T19:39:08.529Z,101166.80
2023-02-22T19:41:36.597Z,101166.59
2023-02-22T19:44:05.536Z,101167.17
2023-02-22T19:46:33.933Z,101165.84
2023-02-22T19:49:02.716Z,101162.84
2023-02-22T19:51:32.197Z,101165.41
2023-02-22T19:54:03.388Z,101164.36
2023-02-22T19:56:32.349Z,101166.95
2023-02-22T19:59:09.390Z,101173.00
2023-02-22T20:01:37.689Z,101169.61
2023-02-22T20:04:08.344Z,101173.33
2023-02-22T20:06:42.239Z,101172.73
2023-02-22T20:09:19.457Z,101179.05
2023-02-22T20:11:48.597Z,101181.08
2023-02-22T20:14:20.291Z,101184.61
2023-02-22T20:16:48.104Z,101181.96
2023-02-22T20:19:16.319Z,101177.75
2023-02-22T20:21:44.330Z,101176.75
2023-02-22T20:24:15.066Z,101175.75
2023-02-22T20:26:43.392Z,101175.10
2023-02-22T20:29:11.538Z,101173.41
2023-02-22T20:31:41.457Z,101176.30
2023-02-22T20:34:11.645Z,101175.36
2023-02-22T20:36:41.606Z,101169.41
2023-02-22T20:39:13.536Z,101170.50
2023-02-22T20:41:43.902Z,101169.73
2023-02-22T20:44:17.344Z,101168.66
2023-02-22T20:46:46.389Z,101170.35
2023-02-22T20:49:17.533Z,101169.16
2023-02-22T20:51:46.481Z,101164.42
2023-02-22T20:54:15.374Z,101165.66
2023-02-22T20:56:45.336Z,101161.48
2023-02-22T20:59:16.405Z,101159.89
2023-02-22T21:01:44.564Z,101161.23
2023-02-22T21:04:13.623Z,101161.96
2023-02-22T21:06:43.132Z,101159.20
2023-02-22T21:09:14.216Z,101157.88
2023-02-22T21:11:42.295Z,101157.02
2023-02-22T21:14:16.724Z,101155.10
2023-02-22T21:16:47.989Z,101150.59
2023-02-22T21:19:25.506Z,101150.66
2023-02-22T21:21:58.624Z,101149.14
2023-02-22T21:24:28.727Z,101146.98
2023-02-22T21:26:59.161Z,101146.34
2023-02-22T21:29:29.340Z,101150.19
2023-02-22T21:31:57.670Z,101150.30
2023-02-22T21:34:26.321Z,101148.43
2023-02-22T21:36:54.589Z,101147.34
2023-02-22T21:39:28.303Z,101144.80
2023-02-22T21:42:00.638Z,101146.58
2023-02-22T21:44:29.773Z,101138.73
2023-02-22T21:46:57.762Z,101141.79
2023-02-22T21:49:25.843Z,101140.29
2023-02-22T21:51:53.809Z,101136.19
2023-02-22T21:54:23.102Z,101139.02
2023-02-22T21:56:51.516Z,101137.02
2023-02-22T21:59:23.456Z,101137.81
2023-02-22T22:01:56.124Z,101139.23
2023-02-22T22:04:28.646Z,101140.30
2023-02-22T22:06:59.948Z,101141.60
2023-02-22T22:09:33.035Z,101141.05
2023-02-22T22:12:05.423Z,101143.10
2023-02-22T22:14:35.285Z,101137.41
2023-02-22T22:17:08.045Z,101131.58
2023-02-22T22:19:39.422Z,101137.34
2023-02-22T22:22:08.006Z,101135.55
2023-02-22T22:24:37.142Z,101131.87
2023-02-22T22:27:07.653Z,101130.91
2023-02-22T22:29:35.545Z,101126.91
2023-02-22T22:32:03.770Z,101124.78
2023-02-22T22:34:34.556Z,101124.38
2023-02-22T22:37:03.031Z,101124.74
2023-02-22T22:39:31.650Z,101120.69
2023-02-22T22:41:59.793Z,101123.21
2023-02-22T22:44:32.770Z,101121.71
2023-02-22T22:47:01.380Z,101121.83
2023-02-22T22:49:31.530Z,101123.32
2023-02-22T22:51:59.720Z,101122.61
2023-02-22T22:54:29.022Z,101124.52
2023-02-22T22:56:57.159Z,101129.80
2023-02-22T22:59:25.008Z,101130.42
2023-02-22T23:01:54.723Z,101126.17
2023-02-22T23:04:26.201Z,101127.36
2023-02-22T23:06:54.993Z,101125.20
2023-02-22T23:09:31.738Z,101128.19
2023-02-22T23:12:08.912Z,101129.73
2023-02-22T23:14:39.856Z,101127.85
2023-02-22T23:17:14.324Z,101125.02
2023-02-22T23:19:47.162Z,101125.96
2023-02-22T23:22:15.218Z,101120.53
2023-02-22T23:24:45.206Z,101120.08
2023-02-22T23:27:13.723Z,101116.56
2023-02-22T23:29:46.883Z,101115.27
2023-02-22T23:32:15.125Z,101114.17
2023-02-22T23:34:43.969Z,101115.63
2023-02-22T23:37:14.267Z,101112.88
2023-02-22T23:39:42.378Z,101108.97
2023-02-22T23:42:10.339Z,101109.14
2023-02-22T23:44:39.950Z,101104.60
2023-02-22T23:47:09.627Z,101106.38
2023-02-22T23:49:38.478Z,101103.69
2023-02-22T23:52:08.579Z,101098.79
2023-02-22T23:54:44.068Z,101095.82
2023-02-22T23:57:12.128Z,101098.77
2023-02-22T23:59:40.668Z,101091.84
